sensor_id;sensor_type;location;lat;lon;timestamp;P1;durP1;ratioP1;P2;durP2;ratioP2
76714;SDS011;65644;44.990;20.288;2023-07-20T00:14:46;6.88;;;3.50;;
76714;SDS011;65644;44.990;20.288;2023-07-20T00:17:12;8.40;;;3.15;;
76714;SDS011;65644;44.990;20.288;2023-07-20T00:19:38;7.32;;;3.15;;
76714;SDS011;65644;44.990;20.288;2023-07-20T00:37:35;5.38;;;2.83;;
76714;SDS011;65644;44.990;20.288;2023-07-20T00:40:01;9.80;;;3.05;;
76714;SDS011;65644;44.990;20.288;2023-07-20T00:42:30;8.65;;;3.08;;
76714;SDS011;65644;44.990;20.288;2023-07-20T00:44:56;6.95;;;3.30;;
76714;SDS011;65644;44.990;20.288;2023-07-20T00:47:22;12.80;;;3.35;;
76714;SDS011;65644;44.990;20.288;2023-07-20T00:49:49;6.25;;;3.17;;
76714;SDS011;65644;44.990;20.288;2023-07-20T00:52:16;7.22;;;3.40;;
76714;SDS011;65644;44.990;20.288;2023-07-20T00:54:42;6.85;;;3.25;;
76714;SDS011;65644;44.990;20.288;2023-07-20T00:57:08;8.25;;;3.05;;
76714;SDS011;65644;44.990;20.288;2023-07-20T00:59:35;5.95;;;2.60;;
76714;SDS011;65644;44.990;20.288;2023-07-20T01:02:01;7.40;;;3.08;;
76714;SDS011;65644;44.990;20.288;2023-07-20T01:04:27;8.40;;;3.28;;
76714;SDS011;65644;44.990;20.288;2023-07-20T01:07:08;7.20;;;3.08;;
76714;SDS011;65644;44.990;20.288;2023-07-20T01:12:05;5.47;;;2.92;;
76714;SDS011;65644;44.990;20.288;2023-07-20T01:14:33;7.78;;;3.28;;
76714;SDS011;65644;44.990;20.288;2023-07-20T01:17:00;20.85;;;3.35;;
76714;SDS011;65644;44.990;20.288;2023-07-20T01:19:26;10.05;;;3.92;;
76714;SDS011;65644;44.990;20.288;2023-07-20T01:29:43;8.13;;;3.20;;
76714;SDS011;65644;44.990;20.288;2023-07-20T01:32:16;9.25;;;3.28;;
76714;SDS011;65644;44.990;20.288;2023-07-20T01:34:43;8.15;;;3.60;;
76714;SDS011;65644;44.990;20.288;2023-07-20T01:37:09;6.95;;;3.42;;
76714;SDS011;65644;44.990;20.288;2023-07-20T01:39:36;7.15;;;3.88;;
76714;SDS011;65644;44.990;20.288;2023-07-20T01:42:03;8.45;;;3.22;;
76714;SDS011;65644;44.990;20.288;2023-07-20T01:44:29;6.00;;;3.47;;
76714;SDS011;65644;44.990;20.288;2023-07-20T01:46:55;7.88;;;3.85;;
76714;SDS011;65644;44.990;20.288;2023-07-20T01:49:21;7.97;;;3.70;;
76714;SDS011;65644;44.990;20.288;2023-07-20T01:51:47;7.30;;;3.78;;
76714;SDS011;65644;44.990;20.288;2023-07-20T01:54:13;8.82;;;3.72;;
76714;SDS011;65644;44.990;20.288;2023-07-20T01:56:39;6.32;;;3.58;;
76714;SDS011;65644;44.990;20.288;2023-07-20T01:59:05;6.32;;;3.97;;
76714;SDS011;65644;44.990;20.288;2023-07-20T02:01:31;7.53;;;4.05;;
76714;SDS011;65644;44.990;20.288;2023-07-20T02:03:57;13.75;;;4.70;;
76714;SDS011;65644;44.990;20.288;2023-07-20T02:06:23;7.50;;;4.10;;
76714;SDS011;65644;44.990;20.288;2023-07-20T02:08:49;8.20;;;3.83;;
76714;SDS011;65644;44.990;20.288;2023-07-20T02:11:18;7.55;;;3.80;;
76714;SDS011;65644;44.990;20.288;2023-07-20T02:13:44;10.02;;;4.07;;
76714;SDS011;65644;44.990;20.288;2023-07-20T02:16:10;8.48;;;4.15;;
76714;SDS011;65644;44.990;20.288;2023-07-20T02:18:37;8.85;;;4.20;;
76714;SDS011;65644;44.990;20.288;2023-07-20T02:21:03;9.55;;;4.15;;
76714;SDS011;65644;44.990;20.288;2023-07-20T02:23:29;7.38;;;4.30;;
76714;SDS011;65644;44.990;20.288;2023-07-20T02:25:55;8.85;;;4.15;;
76714;SDS011;65644;44.990;20.288;2023-07-20T02:28:21;8.48;;;4.63;;
76714;SDS011;65644;44.990;20.288;2023-07-20T02:30:47;6.90;;;4.32;;
76714;SDS011;65644;44.990;20.288;2023-07-20T02:33:14;7.30;;;3.63;;
76714;SDS011;65644;44.990;20.288;2023-07-20T02:35:40;7.05;;;4.30;;
76714;SDS011;65644;44.990;20.288;2023-07-20T02:38:06;7.43;;;4.18;;
76714;SDS011;65644;44.990;20.288;2023-07-20T02:40:32;8.88;;;4.28;;
76714;SDS011;65644;44.990;20.288;2023-07-20T02:42:58;10.07;;;4.38;;
76714;SDS011;65644;44.990;20.288;2023-07-20T02:45:25;9.77;;;4.50;;
76714;SDS011;65644;44.990;20.288;2023-07-20T02:47:51;7.05;;;3.20;;
76714;SDS011;65644;44.990;20.288;2023-07-20T02:50:17;7.60;;;3.60;;
76714;SDS011;65644;44.990;20.288;2023-07-20T02:52:43;9.05;;;3.95;;
76714;SDS011;65644;44.990;20.288;2023-07-20T02:55:09;11.45;;;4.20;;
76714;SDS011;65644;44.990;20.288;2023-07-20T02:57:35;10.68;;;4.10;;
76714;SDS011;65644;44.990;20.288;2023-07-20T03:00:02;7.25;;;3.38;;
76714;SDS011;65644;44.990;20.288;2023-07-20T03:02:30;7.75;;;3.90;;
76714;SDS011;65644;44.990;20.288;2023-07-20T03:04:56;10.27;;;3.75;;
76714;SDS011;65644;44.990;20.288;2023-07-20T03:07:26;8.15;;;4.03;;
76714;SDS011;65644;44.990;20.288;2023-07-20T03:09:53;12.05;;;4.45;;
76714;SDS011;65644;44.990;20.288;2023-07-20T03:12:20;7.90;;;4.15;;
76714;SDS011;65644;44.990;20.288;2023-07-20T03:14:46;7.25;;;4.03;;
76714;SDS011;65644;44.990;20.288;2023-07-20T03:17:12;8.27;;;4.65;;
76714;SDS011;65644;44.990;20.288;2023-07-20T03:19:38;9.95;;;4.60;;
76714;SDS011;65644;44.990;20.288;2023-07-20T03:22:05;9.90;;;3.65;;
76714;SDS011;65644;44.990;20.288;2023-07-20T03:24:31;8.52;;;3.55;;
76714;SDS011;65644;44.990;20.288;2023-07-20T03:26:58;6.88;;;3.83;;
76714;SDS011;65644;44.990;20.288;2023-07-20T03:29:24;11.43;;;3.72;;
76714;SDS011;65644;44.990;20.288;2023-07-20T03:31:50;9.63;;;3.20;;
76714;SDS011;65644;44.990;20.288;2023-07-20T03:34:16;7.05;;;2.92;;
76714;SDS011;65644;44.990;20.288;2023-07-20T03:36:43;10.00;;;4.10;;
76714;SDS011;65644;44.990;20.288;2023-07-20T03:39:09;8.50;;;3.60;;
76714;SDS011;65644;44.990;20.288;2023-07-20T03:41:35;9.82;;;4.25;;
76714;SDS011;65644;44.990;20.288;2023-07-20T03:44:02;7.43;;;4.00;;
76714;SDS011;65644;44.990;20.288;2023-07-20T03:46:28;9.82;;;4.75;;
76714;SDS011;65644;44.990;20.288;2023-07-20T03:48:54;10.38;;;5.03;;
76714;SDS011;65644;44.990;20.288;2023-07-20T03:51:20;9.95;;;4.40;;
76714;SDS011;65644;44.990;20.288;2023-07-20T03:53:46;11.48;;;4.70;;
76714;SDS011;65644;44.990;20.288;2023-07-20T03:56:12;9.48;;;4.95;;
76714;SDS011;65644;44.990;20.288;2023-07-20T03:58:38;12.13;;;5.03;;
76714;SDS011;65644;44.990;20.288;2023-07-20T04:01:04;13.80;;;5.25;;
76714;SDS011;65644;44.990;20.288;2023-07-20T04:03:30;11.32;;;5.40;;
76714;SDS011;65644;44.990;20.288;2023-07-20T04:06:00;11.45;;;5.25;;
76714;SDS011;65644;44.990;20.288;2023-07-20T04:08:26;9.30;;;5.20;;
76714;SDS011;65644;44.990;20.288;2023-07-20T04:10:53;13.75;;;5.55;;
76714;SDS011;65644;44.990;20.288;2023-07-20T04:13:19;11.77;;;5.50;;
76714;SDS011;65644;44.990;20.288;2023-07-20T04:15:45;10.73;;;5.65;;
76714;SDS011;65644;44.990;20.288;2023-07-20T04:18:11;12.18;;;5.55;;
76714;SDS011;65644;44.990;20.288;2023-07-20T04:20:37;11.27;;;5.25;;
76714;SDS011;65644;44.990;20.288;2023-07-20T04:23:03;10.77;;;5.05;;
76714;SDS011;65644;44.990;20.288;2023-07-20T04:25:32;10.07;;;4.70;;
76714;SDS011;65644;44.990;20.288;2023-07-20T04:28:04;10.38;;;4.93;;
76714;SDS011;65644;44.990;20.288;2023-07-20T04:30:33;10.35;;;4.20;;
76714;SDS011;65644;44.990;20.288;2023-07-20T04:33:00;9.77;;;4.30;;
76714;SDS011;65644;44.990;20.288;2023-07-20T04:38:10;9.38;;;4.60;;
76714;SDS011;65644;44.990;20.288;2023-07-20T04:40:36;8.73;;;4.38;;
76714;SDS011;65644;44.990;20.288;2023-07-20T04:43:02;9.07;;;4.40;;
76714;SDS011;65644;44.990;20.288;2023-07-20T04:45:28;7.57;;;4.15;;
76714;SDS011;65644;44.990;20.288;2023-07-20T04:47:55;9.35;;;4.93;;
76714;SDS011;65644;44.990;20.288;2023-07-20T04:50:22;10.45;;;4.90;;
76714;SDS011;65644;44.990;20.288;2023-07-20T04:52:50;10.40;;;5.20;;
76714;SDS011;65644;44.990;20.288;2023-07-20T04:55:16;6.80;;;4.72;;
76714;SDS011;65644;44.990;20.288;2023-07-20T04:57:42;8.13;;;4.95;;
76714;SDS011;65644;44.990;20.288;2023-07-20T05:00:08;8.50;;;4.95;;
76714;SDS011;65644;44.990;20.288;2023-07-20T05:02:38;8.95;;;5.07;;
76714;SDS011;65644;44.990;20.288;2023-07-20T05:05:04;10.68;;;4.95;;
76714;SDS011;65644;44.990;20.288;2023-07-20T05:07:34;12.35;;;5.03;;
76714;SDS011;65644;44.990;20.288;2023-07-20T05:10:00;10.05;;;5.10;;
76714;SDS011;65644;44.990;20.288;2023-07-20T05:12:26;13.60;;;6.10;;
76714;SDS011;65644;44.990;20.288;2023-07-20T05:14:52;9.43;;;6.22;;
76714;SDS011;65644;44.990;20.288;2023-07-20T05:17:18;7.28;;;5.60;;
76714;SDS011;65644;44.990;20.288;2023-07-20T05:19:44;11.13;;;5.78;;
76714;SDS011;65644;44.990;20.288;2023-07-20T05:22:10;15.23;;;6.78;;
76714;SDS011;65644;44.990;20.288;2023-07-20T05:24:37;9.55;;;6.80;;
76714;SDS011;65644;44.990;20.288;2023-07-20T05:27:03;14.18;;;7.35;;
76714;SDS011;65644;44.990;20.288;2023-07-20T05:29:29;15.00;;;7.30;;
76714;SDS011;65644;44.990;20.288;2023-07-20T05:31:55;16.50;;;7.70;;
76714;SDS011;65644;44.990;20.288;2023-07-20T05:34:21;10.63;;;7.05;;
76714;SDS011;65644;44.990;20.288;2023-07-20T05:39:35;16.77;;;8.02;;
76714;SDS011;65644;44.990;20.288;2023-07-20T05:42:01;15.48;;;7.97;;
76714;SDS011;65644;44.990;20.288;2023-07-20T05:44:27;16.40;;;7.55;;
76714;SDS011;65644;44.990;20.288;2023-07-20T05:46:53;12.00;;;7.93;;
76714;SDS011;65644;44.990;20.288;2023-07-20T05:49:19;16.25;;;7.85;;
76714;SDS011;65644;44.990;20.288;2023-07-20T05:51:45;12.48;;;7.72;;
76714;SDS011;65644;44.990;20.288;2023-07-20T05:54:12;13.98;;;7.95;;
76714;SDS011;65644;44.990;20.288;2023-07-20T05:56:38;16.55;;;7.95;;
76714;SDS011;65644;44.990;20.288;2023-07-20T05:59:04;13.57;;;7.50;;
76714;SDS011;65644;44.990;20.288;2023-07-20T06:01:30;12.10;;;7.65;;
76714;SDS011;65644;44.990;20.288;2023-07-20T06:03:56;14.63;;;8.55;;
76714;SDS011;65644;44.990;20.288;2023-07-20T06:06:22;11.43;;;7.45;;
76714;SDS011;65644;44.990;20.288;2023-07-20T06:08:48;12.55;;;8.18;;
76714;SDS011;65644;44.990;20.288;2023-07-20T06:11:14;10.65;;;7.30;;
76714;SDS011;65644;44.990;20.288;2023-07-20T06:13:40;13.18;;;7.90;;
76714;SDS011;65644;44.990;20.288;2023-07-20T06:16:08;14.45;;;7.72;;
76714;SDS011;65644;44.990;20.288;2023-07-20T06:18:34;10.05;;;8.02;;
76714;SDS011;65644;44.990;20.288;2023-07-20T06:21:00;13.32;;;7.78;;
76714;SDS011;65644;44.990;20.288;2023-07-20T06:23:26;10.75;;;7.35;;
76714;SDS011;65644;44.990;20.288;2023-07-20T06:25:52;12.38;;;8.23;;
76714;SDS011;65644;44.990;20.288;2023-07-20T06:28:18;14.80;;;7.93;;
76714;SDS011;65644;44.990;20.288;2023-07-20T06:30:44;13.65;;;8.23;;
76714;SDS011;65644;44.990;20.288;2023-07-20T06:33:10;15.35;;;8.30;;
76714;SDS011;65644;44.990;20.288;2023-07-20T06:35:36;12.77;;;7.93;;
76714;SDS011;65644;44.990;20.288;2023-07-20T06:38:02;16.90;;;7.80;;
76714;SDS011;65644;44.990;20.288;2023-07-20T06:40:29;12.63;;;7.40;;
76714;SDS011;65644;44.990;20.288;2023-07-20T06:42:55;20.80;;;8.88;;
76714;SDS011;65644;44.990;20.288;2023-07-20T07:03:08;13.05;;;8.40;;
76714;SDS011;65644;44.990;20.288;2023-07-20T07:05:35;18.60;;;9.50;;
76714;SDS011;65644;44.990;20.288;2023-07-20T07:08:02;17.10;;;9.43;;
76714;SDS011;65644;44.990;20.288;2023-07-20T07:10:28;13.13;;;8.07;;
76714;SDS011;65644;44.990;20.288;2023-07-20T07:12:54;14.55;;;8.48;;
76714;SDS011;65644;44.990;20.288;2023-07-20T07:15:20;13.65;;;8.70;;
76714;SDS011;65644;44.990;20.288;2023-07-20T07:17:46;13.90;;;7.82;;
76714;SDS011;65644;44.990;20.288;2023-07-20T07:20:13;16.17;;;8.73;;
76714;SDS011;65644;44.990;20.288;2023-07-20T07:22:39;21.13;;;10.07;;
76714;SDS011;65644;44.990;20.288;2023-07-20T07:25:05;18.73;;;10.23;;
76714;SDS011;65644;44.990;20.288;2023-07-20T07:27:32;14.52;;;8.63;;
76714;SDS011;65644;44.990;20.288;2023-07-20T07:29:58;14.48;;;9.38;;
76714;SDS011;65644;44.990;20.288;2023-07-20T07:32:24;13.20;;;9.40;;
76714;SDS011;65644;44.990;20.288;2023-07-20T07:34:50;15.38;;;8.95;;
76714;SDS011;65644;44.990;20.288;2023-07-20T07:37:16;11.93;;;8.63;;
76714;SDS011;65644;44.990;20.288;2023-07-20T07:39:44;14.77;;;8.90;;
76714;SDS011;65644;44.990;20.288;2023-07-20T07:42:11;12.35;;;9.63;;
76714;SDS011;65644;44.990;20.288;2023-07-20T07:44:37;19.08;;;9.50;;
76714;SDS011;65644;44.990;20.288;2023-07-20T07:47:03;14.38;;;8.68;;
76714;SDS011;65644;44.990;20.288;2023-07-20T07:49:30;12.38;;;8.45;;
76714;SDS011;65644;44.990;20.288;2023-07-20T07:51:56;16.95;;;9.20;;
76714;SDS011;65644;44.990;20.288;2023-07-20T07:54:22;17.85;;;9.55;;
76714;SDS011;65644;44.990;20.288;2023-07-20T07:56:48;17.27;;;9.25;;
76714;SDS011;65644;44.990;20.288;2023-07-20T07:59:16;20.33;;;9.25;;
76714;SDS011;65644;44.990;20.288;2023-07-20T08:01:42;19.27;;;9.05;;
76714;SDS011;65644;44.990;20.288;2023-07-20T08:04:08;11.35;;;8.50;;
76714;SDS011;65644;44.990;20.288;2023-07-20T08:06:34;12.30;;;7.65;;
76714;SDS011;65644;44.990;20.288;2023-07-20T08:09:00;13.07;;;7.40;;
76714;SDS011;65644;44.990;20.288;2023-07-20T08:11:26;13.38;;;8.98;;
76714;SDS011;65644;44.990;20.288;2023-07-20T08:13:55;14.85;;;8.13;;
76714;SDS011;65644;44.990;20.288;2023-07-20T08:16:21;10.77;;;7.93;;
76714;SDS011;65644;44.990;20.288;2023-07-20T08:18:47;12.85;;;8.18;;
76714;SDS011;65644;44.990;20.288;2023-07-20T08:21:13;14.73;;;9.27;;
76714;SDS011;65644;44.990;20.288;2023-07-20T08:23:40;10.63;;;8.65;;
76714;SDS011;65644;44.990;20.288;2023-07-20T08:26:06;18.27;;;8.95;;
76714;SDS011;65644;44.990;20.288;2023-07-20T08:28:32;11.95;;;8.70;;
76714;SDS011;65644;44.990;20.288;2023-07-20T08:30:58;16.05;;;8.45;;
76714;SDS011;65644;44.990;20.288;2023-07-20T08:33:24;13.45;;;8.77;;
76714;SDS011;65644;44.990;20.288;2023-07-20T08:35:50;14.48;;;8.45;;
76714;SDS011;65644;44.990;20.288;2023-07-20T08:38:16;13.13;;;8.48;;
76714;SDS011;65644;44.990;20.288;2023-07-20T08:40:43;12.55;;;7.72;;
76714;SDS011;65644;44.990;20.288;2023-07-20T08:43:12;10.98;;;7.20;;
76714;SDS011;65644;44.990;20.288;2023-07-20T08:45:39;15.18;;;7.53;;
76714;SDS011;65644;44.990;20.288;2023-07-20T08:48:06;9.93;;;6.50;;
76714;SDS011;65644;44.990;20.288;2023-07-20T08:50:32;10.80;;;7.28;;
76714;SDS011;65644;44.990;20.288;2023-07-20T08:52:59;10.80;;;5.95;;
76714;SDS011;65644;44.990;20.288;2023-07-20T08:55:28;12.20;;;5.95;;
76714;SDS011;65644;44.990;20.288;2023-07-20T08:57:55;7.25;;;4.70;;
76714;SDS011;65644;44.990;20.288;2023-07-20T09:00:21;14.55;;;5.90;;
76714;SDS011;65644;44.990;20.288;2023-07-20T09:02:49;9.88;;;5.90;;
76714;SDS011;65644;44.990;20.288;2023-07-20T09:05:22;7.03;;;5.43;;
76714;SDS011;65644;44.990;20.288;2023-07-20T09:07:51;8.07;;;5.22;;
76714;SDS011;65644;44.990;20.288;2023-07-20T09:10:18;5.30;;;4.80;;
76714;SDS011;65644;44.990;20.288;2023-07-20T09:12:45;8.05;;;5.53;;
76714;SDS011;65644;44.990;20.288;2023-07-20T09:15:13;7.57;;;4.43;;
76714;SDS011;65644;44.990;20.288;2023-07-20T09:17:39;9.90;;;4.68;;
76714;SDS011;65644;44.990;20.288;2023-07-20T09:20:05;7.00;;;4.47;;
76714;SDS011;65644;44.990;20.288;2023-07-20T09:22:35;7.53;;;4.50;;
76714;SDS011;65644;44.990;20.288;2023-07-20T09:25:05;8.75;;;4.10;;
76714;SDS011;65644;44.990;20.288;2023-07-20T09:27:35;6.07;;;3.80;;
76714;SDS011;65644;44.990;20.288;2023-07-20T09:30:02;12.13;;;5.13;;
76714;SDS011;65644;44.990;20.288;2023-07-20T09:32:28;10.18;;;4.20;;
76714;SDS011;65644;44.990;20.288;2023-07-20T09:34:54;5.53;;;3.80;;
76714;SDS011;65644;44.990;20.288;2023-07-20T09:37:21;8.80;;;3.75;;
76714;SDS011;65644;44.990;20.288;2023-07-20T09:39:52;11.80;;;5.00;;
76714;SDS011;65644;44.990;20.288;2023-07-20T09:42:19;7.85;;;3.97;;
76714;SDS011;65644;44.990;20.288;2023-07-20T09:44:46;10.32;;;5.07;;
76714;SDS011;65644;44.990;20.288;2023-07-20T09:47:13;7.72;;;3.92;;
76714;SDS011;65644;44.990;20.288;2023-07-20T09:49:47;6.18;;;3.55;;
76714;SDS011;65644;44.990;20.288;2023-07-20T09:52:13;7.82;;;3.42;;
76714;SDS011;65644;44.990;20.288;2023-07-20T09:54:39;8.43;;;4.22;;
76714;SDS011;65644;44.990;20.288;2023-07-20T09:57:08;6.60;;;3.28;;
76714;SDS011;65644;44.990;20.288;2023-07-20T09:59:35;5.72;;;3.92;;
76714;SDS011;65644;44.990;20.288;2023-07-20T10:02:02;6.38;;;3.95;;
76714;SDS011;65644;44.990;20.288;2023-07-20T10:04:31;6.85;;;3.47;;
76714;SDS011;65644;44.990;20.288;2023-07-20T10:07:00;12.27;;;4.72;;
76714;SDS011;65644;44.990;20.288;2023-07-20T10:09:29;6.32;;;3.13;;
76714;SDS011;65644;44.990;20.288;2023-07-20T10:11:56;7.15;;;3.80;;
76714;SDS011;65644;44.990;20.288;2023-07-20T10:14:24;7.38;;;3.83;;
76714;SDS011;65644;44.990;20.288;2023-07-20T10:16:57;7.13;;;4.20;;
76714;SDS011;65644;44.990;20.288;2023-07-20T10:19:32;4.50;;;3.40;;
76714;SDS011;65644;44.990;20.288;2023-07-20T10:22:00;7.18;;;3.90;;
76714;SDS011;65644;44.990;20.288;2023-07-20T10:24:29;5.38;;;3.88;;
76714;SDS011;65644;44.990;20.288;2023-07-20T10:26:55;6.60;;;4.32;;
76714;SDS011;65644;44.990;20.288;2023-07-20T10:29:22;6.45;;;4.45;;
76714;SDS011;65644;44.990;20.288;2023-07-20T10:31:52;7.32;;;4.28;;
76714;SDS011;65644;44.990;20.288;2023-07-20T10:34:21;7.28;;;3.97;;
76714;SDS011;65644;44.990;20.288;2023-07-20T10:36:47;6.90;;;4.25;;
76714;SDS011;65644;44.990;20.288;2023-07-20T10:39:23;6.93;;;4.60;;
76714;SDS011;65644;44.990;20.288;2023-07-20T10:41:50;8.27;;;4.80;;
76714;SDS011;65644;44.990;20.288;2023-07-20T10:46:50;11.60;;;5.00;;
76714;SDS011;65644;44.990;20.288;2023-07-20T10:49:24;7.45;;;4.57;;
76714;SDS011;65644;44.990;20.288;2023-07-20T10:52:13;6.45;;;4.35;;
76714;SDS011;65644;44.990;20.288;2023-07-20T10:54:46;36.90;;;6.25;;
76714;SDS011;65644;44.990;20.288;2023-07-20T10:59:49;6.10;;;4.30;;
76714;SDS011;65644;44.990;20.288;2023-07-20T11:02:17;5.68;;;4.25;;
76714;SDS011;65644;44.990;20.288;2023-07-20T11:04:46;7.65;;;3.63;;
76714;SDS011;65644;44.990;20.288;2023-07-20T11:07:16;9.07;;;4.68;;
76714;SDS011;65644;44.990;20.288;2023-07-20T11:09:43;6.57;;;4.15;;
76714;SDS011;65644;44.990;20.288;2023-07-20T11:12:10;5.50;;;3.95;;
76714;SDS011;65644;44.990;20.288;2023-07-20T11:14:40;5.80;;;3.75;;
76714;SDS011;65644;44.990;20.288;2023-07-20T11:17:13;5.60;;;3.88;;
76714;SDS011;65644;44.990;20.288;2023-07-20T11:19:39;8.63;;;3.80;;
76714;SDS011;65644;44.990;20.288;2023-07-20T11:22:08;3.67;;;2.70;;
76714;SDS011;65644;44.990;20.288;2023-07-20T11:24:38;4.18;;;2.78;;
76714;SDS011;65644;44.990;20.288;2023-07-20T11:27:04;5.25;;;3.47;;
76714;SDS011;65644;44.990;20.288;2023-07-20T11:29:30;5.68;;;3.28;;
76714;SDS011;65644;44.990;20.288;2023-07-20T11:31:56;8.20;;;2.92;;
76714;SDS011;65644;44.990;20.288;2023-07-20T11:34:25;4.55;;;2.60;;
76714;SDS011;65644;44.990;20.288;2023-07-20T11:36:52;9.20;;;2.80;;
76714;SDS011;65644;44.990;20.288;2023-07-20T11:39:20;10.52;;;3.70;;
76714;SDS011;65644;44.990;20.288;2023-07-20T11:41:50;5.35;;;2.90;;
76714;SDS011;65644;44.990;20.288;2023-07-20T11:44:17;6.32;;;2.92;;
76714;SDS011;65644;44.990;20.288;2023-07-20T11:46:43;5.18;;;3.00;;
76714;SDS011;65644;44.990;20.288;2023-07-20T11:49:10;10.00;;;4.55;;
76714;SDS011;65644;44.990;20.288;2023-07-20T11:51:36;5.55;;;2.40;;
76714;SDS011;65644;44.990;20.288;2023-07-20T11:54:03;10.50;;;3.10;;
76714;SDS011;65644;44.990;20.288;2023-07-20T11:56:29;6.03;;;2.88;;
76714;SDS011;65644;44.990;20.288;2023-07-20T11:58:56;5.57;;;3.05;;
76714;SDS011;65644;44.990;20.288;2023-07-20T12:01:25;5.05;;;2.80;;
76714;SDS011;65644;44.990;20.288;2023-07-20T12:03:54;3.78;;;2.38;;
76714;SDS011;65644;44.990;20.288;2023-07-20T12:06:22;8.55;;;3.42;;
76714;SDS011;65644;44.990;20.288;2023-07-20T12:08:49;6.15;;;2.60;;
76714;SDS011;65644;44.990;20.288;2023-07-20T12:11:29;3.70;;;2.55;;
76714;SDS011;65644;44.990;20.288;2023-07-20T12:13:57;4.18;;;3.15;;
76714;SDS011;65644;44.990;20.288;2023-07-20T12:16:26;5.72;;;3.30;;
76714;SDS011;65644;44.990;20.288;2023-07-20T12:18:58;7.25;;;3.63;;
76714;SDS011;65644;44.990;20.288;2023-07-20T12:21:25;5.28;;;3.38;;
76714;SDS011;65644;44.990;20.288;2023-07-20T12:23:51;4.75;;;3.00;;
76714;SDS011;65644;44.990;20.288;2023-07-20T12:26:17;5.80;;;3.25;;
76714;SDS011;65644;44.990;20.288;2023-07-20T12:28:43;6.20;;;3.42;;
76714;SDS011;65644;44.990;20.288;2023-07-20T12:31:09;8.70;;;3.25;;
76714;SDS011;65644;44.990;20.288;2023-07-20T12:33:36;5.05;;;3.50;;
76714;SDS011;65644;44.990;20.288;2023-07-20T12:36:03;4.03;;;3.00;;
76714;SDS011;65644;44.990;20.288;2023-07-20T12:38:29;3.75;;;2.40;;
76714;SDS011;65644;44.990;20.288;2023-07-20T12:40:56;4.18;;;3.03;;
76714;SDS011;65644;44.990;20.288;2023-07-20T12:43:23;5.15;;;2.65;;
76714;SDS011;65644;44.990;20.288;2023-07-20T12:45:49;4.70;;;2.72;;
76714;SDS011;65644;44.990;20.288;2023-07-20T12:48:15;3.88;;;2.85;;
76714;SDS011;65644;44.990;20.288;2023-07-20T12:50:41;5.28;;;2.72;;
76714;SDS011;65644;44.990;20.288;2023-07-20T12:53:07;5.97;;;2.90;;
76714;SDS011;65644;44.990;20.288;2023-07-20T12:55:33;5.13;;;2.78;;
76714;SDS011;65644;44.990;20.288;2023-07-20T12:58:00;6.75;;;3.00;;
76714;SDS011;65644;44.990;20.288;2023-07-20T13:00:26;3.20;;;2.90;;
76714;SDS011;65644;44.990;20.288;2023-07-20T13:02:52;3.00;;;2.38;;
76714;SDS011;65644;44.990;20.288;2023-07-20T13:05:18;6.07;;;2.95;;
76714;SDS011;65644;44.990;20.288;2023-07-20T13:07:44;4.97;;;2.63;;
76714;SDS011;65644;44.990;20.288;2023-07-20T13:10:11;4.90;;;3.03;;
76714;SDS011;65644;44.990;20.288;2023-07-20T13:12:37;5.57;;;2.33;;
76714;SDS011;65644;44.990;20.288;2023-07-20T13:15:04;5.07;;;3.70;;
76714;SDS011;65644;44.990;20.288;2023-07-20T13:17:31;5.60;;;2.80;;
76714;SDS011;65644;44.990;20.288;2023-07-20T13:19:57;6.65;;;2.97;;
76714;SDS011;65644;44.990;20.288;2023-07-20T13:22:23;4.00;;;2.92;;
76714;SDS011;65644;44.990;20.288;2023-07-20T13:24:49;5.10;;;2.90;;
76714;SDS011;65644;44.990;20.288;2023-07-20T13:27:16;3.80;;;2.67;;
76714;SDS011;65644;44.990;20.288;2023-07-20T13:29:43;4.43;;;3.20;;
76714;SDS011;65644;44.990;20.288;2023-07-20T13:32:09;5.75;;;3.00;;
76714;SDS011;65644;44.990;20.288;2023-07-20T13:34:35;5.90;;;3.13;;
76714;SDS011;65644;44.990;20.288;2023-07-20T13:37:01;4.05;;;2.95;;
76714;SDS011;65644;44.990;20.288;2023-07-20T13:39:27;6.07;;;3.67;;
76714;SDS011;65644;44.990;20.288;2023-07-20T13:41:53;6.47;;;3.10;;
76714;SDS011;65644;44.990;20.288;2023-07-20T13:44:20;4.80;;;2.85;;
76714;SDS011;65644;44.990;20.288;2023-07-20T13:46:46;4.32;;;2.97;;
76714;SDS011;65644;44.990;20.288;2023-07-20T14:00:40;5.97;;;3.00;;
76714;SDS011;65644;44.990;20.288;2023-07-20T14:03:06;6.07;;;3.17;;
76714;SDS011;65644;44.990;20.288;2023-07-20T14:05:33;5.28;;;3.40;;
76714;SDS011;65644;44.990;20.288;2023-07-20T14:07:59;5.85;;;3.20;;
76714;SDS011;65644;44.990;20.288;2023-07-20T14:10:25;5.38;;;3.25;;
76714;SDS011;65644;44.990;20.288;2023-07-20T14:25:15;6.25;;;3.65;;
76714;SDS011;65644;44.990;20.288;2023-07-20T14:27:41;7.45;;;3.20;;
76714;SDS011;65644;44.990;20.288;2023-07-20T14:43:18;4.93;;;3.08;;
76714;SDS011;65644;44.990;20.288;2023-07-20T14:45:44;6.55;;;3.15;;
76714;SDS011;65644;44.990;20.288;2023-07-20T14:48:10;4.82;;;2.83;;
76714;SDS011;65644;44.990;20.288;2023-07-20T14:50:36;3.83;;;3.20;;
76714;SDS011;65644;44.990;20.288;2023-07-20T14:53:02;6.60;;;3.45;;
76714;SDS011;65644;44.990;20.288;2023-07-20T14:55:28;4.32;;;2.75;;
76714;SDS011;65644;44.990;20.288;2023-07-20T14:57:54;7.22;;;3.53;;
76714;SDS011;65644;44.990;20.288;2023-07-20T15:00:20;3.90;;;2.83;;
76714;SDS011;65644;44.990;20.288;2023-07-20T15:02:47;8.90;;;3.33;;
76714;SDS011;65644;44.990;20.288;2023-07-20T15:05:19;5.10;;;3.20;;
76714;SDS011;65644;44.990;20.288;2023-07-20T15:07:46;6.47;;;3.00;;
76714;SDS011;65644;44.990;20.288;2023-07-20T15:10:12;5.55;;;3.22;;
76714;SDS011;65644;44.990;20.288;2023-07-20T15:12:38;4.28;;;3.40;;
76714;SDS011;65644;44.990;20.288;2023-07-20T15:15:11;5.47;;;3.17;;
76714;SDS011;65644;44.990;20.288;2023-07-20T15:17:38;6.00;;;3.27;;
76714;SDS011;65644;44.990;20.288;2023-07-20T15:20:05;4.60;;;2.70;;
76714;SDS011;65644;44.990;20.288;2023-07-20T15:22:34;3.33;;;3.03;;
76714;SDS011;65644;44.990;20.288;2023-07-20T15:25:03;5.43;;;3.47;;
76714;SDS011;65644;44.990;20.288;2023-07-20T15:27:30;6.45;;;3.42;;
76714;SDS011;65644;44.990;20.288;2023-07-20T15:41:47;5.88;;;3.42;;
76714;SDS011;65644;44.990;20.288;2023-07-20T15:44:13;5.95;;;3.13;;
76714;SDS011;65644;44.990;20.288;2023-07-20T15:49:05;4.93;;;3.20;;
76714;SDS011;65644;44.990;20.288;2023-07-20T15:51:35;4.07;;;3.20;;
76714;SDS011;65644;44.990;20.288;2023-07-20T15:54:10;7.43;;;4.07;;
76714;SDS011;65644;44.990;20.288;2023-07-20T15:56:37;6.18;;;3.80;;
76714;SDS011;65644;44.990;20.288;2023-07-20T15:59:03;6.63;;;3.47;;
76714;SDS011;65644;44.990;20.288;2023-07-20T16:01:30;8.63;;;3.03;;
76714;SDS011;65644;44.990;20.288;2023-07-20T16:03:56;3.95;;;2.90;;
76714;SDS011;65644;44.990;20.288;2023-07-20T16:06:22;5.95;;;3.35;;
76714;SDS011;65644;44.990;20.288;2023-07-20T16:08:49;6.63;;;3.47;;
76714;SDS011;65644;44.990;20.288;2023-07-20T16:11:16;4.05;;;2.80;;
76714;SDS011;65644;44.990;20.288;2023-07-20T16:13:42;9.13;;;3.42;;
76714;SDS011;65644;44.990;20.288;2023-07-20T16:16:10;10.32;;;3.70;;
76714;SDS011;65644;44.990;20.288;2023-07-20T16:18:36;4.63;;;3.42;;
76714;SDS011;65644;44.990;20.288;2023-07-20T16:21:02;12.82;;;4.53;;
76714;SDS011;65644;44.990;20.288;2023-07-20T16:23:28;84.95;;;8.70;;
76714;SDS011;65644;44.990;20.288;2023-07-20T16:25:54;8.18;;;3.55;;
76714;SDS011;65644;44.990;20.288;2023-07-20T16:28:20;4.45;;;3.08;;